Time;durP1;ratioP1;P1;durP2;ratioP2;P2;SDS_P1;SDS_P2;PMS_P1;PMS_P2;Temp;Humidity;BMP_temperature;BMP_pressure;BME280_temperature;BME280_humidity;BME280_pressure;Samples;Min_cycle;Max_cycle;Signal;HPM_P1;HPM_P2
2023/11/06 00:02:18;;;;;;;2.53;2.53;;;21.70;71.20;;;;;;5014639;28;20869;-66
2023/11/06 00:04:45;;;;;;;2.60;2.60;;;21.70;71.30;;;;;;5014565;28;20474;-65
2023/11/06 00:07:12;;;;;;;3.40;3.10;;;21.70;71.30;;;;;;5014421;28;20525;-66
2023/11/06 00:09:39;;;;;;;2.57;2.57;;;21.70;71.30;;;;;;5014307;28;20967;-65
2023/11/06 00:12:09;;;;;;;2.73;2.53;;;21.70;71.30;;;;;;5006586;28;20449;-66
2023/11/06 00:14:37;;;;;;;2.50;2.50;;;21.70;71.30;;;;;;5014746;28;20461;-66
2023/11/06 00:17:05;;;;;;;3.07;2.97;;;21.70;72.00;;;;;;5014378;28;20474;-67
2023/11/06 00:19:32;;;;;;;2.97;2.87;;;21.70;71.30;;;;;;5014176;28;20524;-66
2023/11/06 00:21:58;;;;;;;2.60;2.60;;;21.70;71.30;;;;;;5014384;28;20473;-67
2023/11/06 00:24:26;;;;;;;3.20;3.10;;;21.70;71.30;;;;;;5014177;28;20480;-66
2023/11/06 00:26:52;;;;;;;2.57;2.50;;;21.70;71.30;;;;;;5015271;28;20446;-67
2023/11/06 00:29:21;;;;;;;2.87;2.77;;;21.60;71.30;;;;;;5020002;28;20572;-66
2023/11/06 00:31:48;;;;;;;2.60;2.60;;;21.60;71.30;;;;;;5014355;28;20441;-66
2023/11/06 00:34:15;;;;;;;2.60;2.60;;;21.60;71.40;;;;;;5014009;28;20474;-66
2023/11/06 00:36:42;;;;;;;3.07;2.97;;;21.60;71.50;;;;;;5013992;28;20448;-66
2023/11/06 00:39:10;;;;;;;2.77;2.77;;;21.60;71.50;;;;;;5013983;28;20492;-67
2023/11/06 00:41:37;;;;;;;2.93;2.83;;;21.60;71.50;;;;;;5014234;28;20983;-66
2023/11/06 00:44:05;;;;;;;2.63;2.63;;;21.60;71.50;;;;;;5013823;28;20876;-66
2023/11/06 00:46:33;;;;;;;2.67;2.60;;;21.60;71.50;;;;;;5013799;28;20457;-66
2023/11/06 00:49:00;;;;;;;2.80;2.70;;;21.60;71.50;;;;;;5013922;28;20513;-66
2023/11/06 00:51:27;;;;;;;2.40;2.40;;;21.60;71.50;;;;;;5013874;28;20442;-67
2023/11/06 00:53:54;;;;;;;2.90;2.83;;;21.60;71.50;;;;;;5013541;28;20483;-66
2023/11/06 00:56:21;;;;;;;2.50;2.43;;;21.60;71.50;;;;;;5016629;28;20446;-66
2023/11/06 00:58:48;;;;;;;2.50;2.50;;;21.60;71.50;;;;;;5013452;28;21005;-67
2023/11/06 01:01:15;;;;;;;2.53;2.50;;;21.50;72.20;;;;;;5013695;28;20988;-66
2023/11/06 01:03:43;;;;;;;2.30;2.30;;;21.50;71.50;;;;;;5013545;28;20509;-66
2023/11/06 01:06:11;;;;;;;2.67;2.57;;;21.50;71.50;;;;;;5013446;28;20482;-66
2023/11/06 01:08:37;;;;;;;2.40;2.40;;;21.50;71.50;;;;;;5013512;28;20856;-66
2023/11/06 01:11:05;;;;;;;2.50;2.40;;;21.50;71.50;;;;;;5013330;28;20481;-67
2023/11/06 01:13:32;;;;;;;2.60;2.50;;;21.50;71.50;;;;;;5013510;28;20500;-66
2023/11/06 01:15:59;;;;;;;2.80;2.80;;;21.50;71.50;;;;;;5013101;28;20508;-67
2023/11/06 01:18:26;;;;;;;2.90;2.80;;;21.50;71.50;;;;;;5013134;28;20454;-66
2023/11/06 01:20:54;;;;;;;3.10;3.00;;;21.50;71.50;;;;;;5013070;28;20481;-66
2023/11/06 01:23:21;;;;;;;3.80;2.57;;;21.50;71.50;;;;;;5019931;28;20489;-67
2023/11/06 01:25:49;;;;;;;2.60;2.60;;;21.50;71.50;;;;;;5013217;28;20473;-65
2023/11/06 01:28:15;;;;;;;2.87;2.70;;;21.50;71.50;;;;;;5012869;28;20569;-67
2023/11/06 01:30:42;;;;;;;2.70;2.70;;;21.50;71.50;;;;;;5012676;28;20937;-66
2023/11/06 01:33:09;;;;;;;2.57;2.57;;;21.50;71.60;;;;;;5012938;28;20482;-67
2023/11/06 01:35:37;;;;;;;2.60;2.50;;;21.50;71.50;;;;;;5012276;28;20469;-66
2023/11/06 01:38:05;;;;;;;2.80;2.60;;;21.50;71.50;;;;;;5012098;28;20466;-67
2023/11/06 01:40:32;;;;;;;5.30;2.80;;;21.50;71.50;;;;;;5012824;28;20512;-67
2023/11/06 01:43:05;;;;;;;2.80;2.70;;;21.50;71.50;;;;;;5012884;28;20884;-67
2023/11/06 01:45:32;;;;;;;2.70;2.60;;;21.50;71.50;;;;;;5012870;28;20458;-66
2023/11/06 01:48:00;;;;;;;3.10;3.00;;;21.50;71.50;;;;;;5012371;28;20502;-66
2023/11/06 01:50:27;;;;;;;2.67;2.57;;;21.40;71.40;;;;;;5012799;28;20482;-67
2023/11/06 01:52:55;;;;;;;2.67;2.67;;;21.40;71.40;;;;;;5012445;28;20477;-67
2023/11/06 01:55:22;;;;;;;2.77;2.77;;;21.40;71.40;;;;;;5012665;28;20477;-67
2023/11/06 01:57:49;;;;;;;2.43;2.43;;;21.40;71.50;;;;;;5012179;28;20573;-67
2023/11/06 02:00:19;;;;;;;2.60;2.60;;;21.40;71.50;;;;;;5012544;28;20473;-66
2023/11/06 02:02:47;;;;;;;2.63;2.60;;;21.40;71.50;;;;;;5012556;28;20446;-66
2023/11/06 02:05:14;;;;;;;2.70;2.60;;;21.40;71.40;;;;;;5016390;28;20549;-67
2023/11/06 02:07:42;;;;;;;2.70;2.60;;;21.40;71.40;;;;;;5017089;28;20496;-66
2023/11/06 02:10:10;;;;;;;2.50;2.50;;;21.40;71.40;;;;;;5014421;28;20481;-66
2023/11/06 02:12:38;;;;;;;2.90;2.90;;;21.40;71.40;;;;;;5013378;28;20500;-67
2023/11/06 02:15:06;;;;;;;3.07;2.90;;;21.40;71.50;;;;;;5012070;28;20462;-67
2023/11/06 02:17:33;;;;;;;2.73;2.73;;;21.40;71.50;;;;;;5011959;28;20476;-67
2023/11/06 02:20:00;;;;;;;2.83;2.80;;;21.30;71.50;;;;;;5011990;28;20476;-66
2023/11/06 02:22:27;;;;;;;3.83;3.27;;;21.30;71.70;;;;;;5012210;28;20477;-67
2023/11/06 02:24:55;;;;;;;2.53;2.53;;;21.30;71.70;;;;;;5011914;28;20473;-65
2023/11/06 02:27:22;;;;;;;2.70;2.70;;;21.30;71.70;;;;;;5018713;28;20486;-67
2023/11/06 02:29:49;;;;;;;2.70;2.70;;;21.30;71.70;;;;;;5012210;28;20513;-67
2023/11/06 02:32:17;;;;;;;2.80;2.60;;;21.30;71.60;;;;;;5011820;28;20485;-67
2023/11/06 02:34:45;;;;;;;2.87;2.87;;;21.30;71.60;;;;;;5011786;28;20449;-66
2023/11/06 02:37:11;;;;;;;2.60;2.60;;;21.30;71.50;;;;;;5016946;28;20454;-65
2023/11/06 02:39:39;;;;;;;3.00;3.00;;;21.30;72.30;;;;;;5011803;28;20482;-66
2023/11/06 02:42:08;;;;;;;2.60;2.50;;;21.30;71.50;;;;;;5011694;28;20442;-66
2023/11/06 02:44:35;;;;;;;3.27;3.17;;;21.30;71.50;;;;;;5011643;28;20442;-66
2023/11/06 02:47:02;;;;;;;2.57;2.47;;;21.30;71.50;;;;;;5022065;28;20491;-66
2023/11/06 02:49:29;;;;;;;3.00;3.00;;;21.30;71.50;;;;;;5011688;28;21019;-66
2023/11/06 02:51:56;;;;;;;2.73;2.70;;;21.30;71.50;;;;;;5011581;28;20477;-66
2023/11/06 02:54:23;;;;;;;3.00;3.00;;;21.30;71.60;;;;;;5011459;28;20481;-67
2023/11/06 02:56:51;;;;;;;2.60;2.60;;;21.30;71.80;;;;;;5011725;28;20457;-67
2023/11/06 02:59:21;;;;;;;2.90;2.80;;;21.30;71.80;;;;;;5050199;22;20496;-69
2023/11/06 03:01:47;;;;;;;2.77;2.77;;;21.30;71.80;;;;;;5030276;28;20986;-70
2023/11/06 03:04:14;;;;;;;2.80;2.80;;;21.20;71.70;;;;;;5032426;28;20472;-69
2023/11/06 03:06:42;;;;;;;2.60;2.60;;;21.20;71.70;;;;;;5032460;28;20473;-69
2023/11/06 03:09:09;;;;;;;2.80;2.70;;;21.20;71.90;;;;;;5031670;28;20504;-69
2023/11/06 03:11:37;;;;;;;3.07;2.90;;;21.20;72.00;;;;;;5032153;28;20453;-69
2023/11/06 03:14:05;;;;;;;3.00;2.90;;;21.20;72.00;;;;;;5032285;28;20445;-69
2023/11/06 03:16:34;;;;;;;2.50;2.50;;;21.20;72.10;;;;;;5032222;28;20796;-69
2023/11/06 03:19:01;;;;;;;2.60;2.60;;;21.20;72.00;;;;;;5031855;28;20465;-69
2023/11/06 03:21:27;;;;;;;2.40;2.40;;;21.20;71.90;;;;;;5032040;28;20485;-69
2023/11/06 03:23:54;;;;;;;2.50;2.50;;;21.20;71.80;;;;;;5032224;28;20902;-69
2023/11/06 03:26:22;;;;;;;2.80;2.80;;;21.20;71.80;;;;;;5032029;28;20487;-69
2023/11/06 03:28:49;;;;;;;2.60;2.60;;;21.20;72.00;;;;;;5031641;28;20484;-69
2023/11/06 03:31:16;;;;;;;2.43;2.43;;;21.20;72.00;;;;;;5031888;28;20956;-69
2023/11/06 03:33:44;;;;;;;3.10;3.00;;;21.20;72.00;;;;;;5031654;28;20534;-69
2023/11/06 03:36:11;;;;;;;2.80;2.70;;;21.20;72.00;;;;;;5031715;28;20475;-69
2023/11/06 03:38:38;;;;;;;2.70;2.60;;;21.20;72.00;;;;;;5032024;28;20534;-69
2023/11/06 03:41:05;;;;;;;2.63;2.60;;;21.20;72.00;;;;;;5031651;28;21015;-69
2023/11/06 03:43:32;;;;;;;2.70;2.70;;;21.20;72.00;;;;;;5032443;28;20445;-69
2023/11/06 03:45:59;;;;;;;2.73;2.73;;;21.20;72.00;;;;;;5031977;28;20477;-69
2023/11/06 03:48:26;;;;;;;2.50;2.50;;;21.20;72.00;;;;;;5031693;28;20507;-69
2023/11/06 03:50:55;;;;;;;2.93;2.83;;;21.20;72.00;;;;;;5031656;28;20495;-70
2023/11/06 03:53:22;;;;;;;2.57;2.57;;;21.20;72.20;;;;;;5031674;28;20441;-70
2023/11/06 03:55:49;;;;;;;2.50;2.50;;;21.20;72.50;;;;;;5031324;28;20543;-69
2023/11/06 03:58:16;;;;;;;2.67;2.67;;;21.20;72.80;;;;;;5033327;28;20496;-69
2023/11/06 04:00:42;;;;;;;2.90;2.80;;;21.20;73.10;;;;;;5034875;28;20481;-69
2023/11/06 04:03:09;;;;;;;3.70;3.60;;;21.20;73.20;;;;;;5035060;28;20468;-70
2023/11/06 04:05:36;;;;;;;2.93;2.73;;;21.20;73.50;;;;;;5034788;28;20441;-69
2023/11/06 04:08:05;;;;;;;2.77;2.67;;;21.20;73.80;;;;;;5034890;28;20503;-70
2023/11/06 04:10:32;;;;;;;3.20;3.00;;;21.20;73.80;;;;;;5034741;28;20512;-70
2023/11/06 04:12:58;;;;;;;3.10;3.00;;;21.20;74.00;;;;;;5034421;28;20473;-69
2023/11/06 04:15:25;;;;;;;3.00;2.80;;;21.20;74.20;;;;;;5033872;28;20567;-70
2023/11/06 04:17:52;;;;;;;2.80;2.80;;;21.20;74.20;;;;;;5033952;28;20445;-70
2023/11/06 04:20:19;;;;;;;3.23;3.03;;;21.20;74.20;;;;;;5034432;28;20445;-69
2023/11/06 04:22:46;;;;;;;2.87;2.80;;;21.20;74.40;;;;;;5034493;28;20495;-70
2023/11/06 04:25:15;;;;;;;2.70;2.70;;;21.20;74.50;;;;;;5034192;28;20484;-70
2023/11/06 04:27:41;;;;;;;2.60;2.60;;;21.20;74.70;;;;;;5034322;28;20546;-70
2023/11/06 04:30:09;;;;;;;2.90;2.80;;;21.20;74.70;;;;;;5033981;28;20473;-69
2023/11/06 04:32:36;;;;;;;2.50;2.50;;;21.20;74.80;;;;;;5034297;28;20469;-70
2023/11/06 04:35:03;;;;;;;3.53;3.43;;;21.20;75.00;;;;;;5034062;28;20456;-70
2023/11/06 04:37:30;;;;;;;2.80;2.80;;;21.20;75.00;;;;;;5034128;28;20528;-70
2023/11/06 04:39:57;;;;;;;3.03;2.93;;;21.20;75.00;;;;;;5034183;28;20516;-70
2023/11/06 04:42:25;;;;;;;3.00;2.90;;;21.20;75.20;;;;;;5034472;28;20477;-70
2023/11/06 04:44:52;;;;;;;3.27;3.27;;;21.20;75.20;;;;;;5034049;28;20875;-70
2023/11/06 04:47:19;;;;;;;3.40;3.30;;;21.20;75.20;;;;;;5032185;28;20483;-70
2023/11/06 04:49:46;;;;;;;3.30;3.20;;;21.20;75.30;;;;;;5033652;28;20485;-70
2023/11/06 04:52:13;;;;;;;3.20;3.10;;;21.20;75.40;;;;;;5033776;28;20488;-70
2023/11/06 04:54:42;;;;;;;3.30;3.20;;;21.20;75.40;;;;;;5034062;28;20480;-70
2023/11/06 04:57:09;;;;;;;3.00;3.00;;;21.20;75.40;;;;;;5034049;28;20441;-70
2023/11/06 04:59:37;;;;;;;3.30;3.20;;;21.20;75.50;;;;;;5034674;28;20536;-70
2023/11/06 05:02:06;;;;;;;3.23;3.23;;;21.10;75.60;;;;;;5034129;28;20446;-70
2023/11/06 05:04:33;;;;;;;3.80;3.70;;;21.20;75.70;;;;;;5034487;28;20488;-70
2023/11/06 05:07:02;;;;;;;3.40;3.40;;;21.10;75.60;;;;;;5035103;28;20473;-70
2023/11/06 05:09:29;;;;;;;4.43;3.53;;;21.10;75.70;;;;;;5033896;28;20899;-70
2023/11/06 05:11:56;;;;;;;3.90;3.70;;;21.10;75.80;;;;;;5034061;28;20459;-70
2023/11/06 05:14:23;;;;;;;3.70;3.60;;;21.10;75.80;;;;;;5034058;28;20528;-70
2023/11/06 05:16:52;;;;;;;3.80;3.70;;;21.10;75.90;;;;;;5034152;28;20449;-70
2023/11/06 05:19:19;;;;;;;4.13;4.03;;;21.10;75.90;;;;;;5026729;28;20497;-70
2023/11/06 05:21:46;;;;;;;3.80;3.70;;;21.10;76.00;;;;;;5034646;28;20473;-70
2023/11/06 05:24:13;;;;;;;3.60;3.60;;;21.10;76.10;;;;;;5034464;28;20473;-70
2023/11/06 05:26:40;;;;;;;3.73;3.53;;;21.10;76.20;;;;;;5034256;28;20956;-70
2023/11/06 05:29:07;;;;;;;4.00;3.73;;;21.10;76.40;;;;;;5033994;28;20496;-70
2023/11/06 05:31:34;;;;;;;3.57;3.47;;;21.10;76.40;;;;;;5034808;28;20532;-70
2023/11/06 05:34:03;;;;;;;3.80;3.70;;;21.10;76.40;;;;;;5033903;28;20479;-70
2023/11/06 05:36:29;;;;;;;3.60;3.50;;;21.10;76.50;;;;;;5033654;28;20472;-70
2023/11/06 05:38:57;;;;;;;3.50;3.50;;;21.10;76.70;;;;;;5033593;28;20889;-70
2023/11/06 05:41:26;;;;;;;3.77;3.67;;;21.10;76.70;;;;;;5033762;28;20536;-70
2023/11/06 05:43:54;;;;;;;4.00;3.90;;;21.20;76.90;;;;;;5034360;28;20512;-70
2023/11/06 05:46:21;;;;;;;4.47;4.00;;;21.10;76.90;;;;;;5033624;28;20496;-70
2023/11/06 05:48:47;;;;;;;7.80;5.20;;;21.10;77.40;;;;;;5034175;28;20457;-70
2023/11/06 05:51:16;;;;;;;7.67;5.80;;;21.20;78.90;;;;;;5033287;28;20563;-70
2023/11/06 05:53:43;;;;;;;6.40;5.30;;;21.20;81.20;;;;;;5033186;28;20481;-70
2023/11/06 05:56:10;;;;;;;17.93;5.93;;;21.20;82.50;;;;;;5033154;28;20483;-70
2023/11/06 05:58:37;;;;;;;11.57;9.40;;;21.20;83.80;;;;;;5032976;28;20465;-69
2023/11/06 06:01:04;;;;;;;17.17;7.73;;;21.20;90.10;;;;;;5031913;28;20476;-74
2023/11/06 06:03:31;;;;;;;14.13;6.37;;;21.30;92.60;;;;;;5032187;28;20478;-74
2023/11/06 06:05:58;;;;;;;17.37;8.17;;;21.30;94.90;;;;;;5032245;28;20473;-69
2023/11/06 06:08:26;;;;;;;15.63;8.10;;;21.30;95.70;;;;;;5032815;28;20493;-69
2023/11/06 06:10:53;;;;;;;18.27;7.50;;;21.30;95.40;;;;;;5033587;28;20524;-70
2023/11/06 06:13:20;;;;;;;12.90;9.40;;;21.30;95.70;;;;;;5034432;28;20492;-70
2023/11/06 06:15:47;;;;;;;18.70;8.17;;;21.20;95.70;;;;;;5034511;28;20441;-70
2023/11/06 06:18:14;;;;;;;19.30;8.17;;;21.20;95.20;;;;;;5033212;28;20512;-69
2023/11/06 06:20:41;;;;;;;18.00;6.77;;;21.20;94.80;;;;;;5033396;28;20457;-69
2023/11/06 06:23:08;;;;;;;12.67;6.70;;;21.20;94.30;;;;;;5033380;28;20951;-69
2023/11/06 06:25:36;;;;;;;9.23;6.43;;;21.10;93.60;;;;;;5033399;28;20857;-70
2023/11/06 06:28:04;;;;;;;21.23;7.23;;;21.10;93.30;;;;;;5032850;28;20990;-69
2023/11/06 06:30:31;;;;;;;10.87;7.13;;;21.10;92.70;;;;;;5032861;28;20477;-70
2023/11/06 06:32:58;;;;;;;15.87;7.10;;;21.10;92.70;;;;;;5033299;28;20864;-70
2023/11/06 06:35:25;;;;;;;16.03;7.13;;;21.10;92.10;;;;;;5033705;28;20455;-70
2023/11/06 06:37:53;;;;;;;13.73;7.00;;;21.10;91.80;;;;;;5034039;28;20476;-70
2023/11/06 06:40:21;;;;;;;19.07;7.83;;;21.10;91.40;;;;;;5026036;28;20509;-70
2023/11/06 06:42:50;;;;;;;8.53;6.00;;;21.10;91.10;;;;;;5033388;28;20877;-70
2023/11/06 06:45:17;;;;;;;16.80;5.93;;;21.10;90.90;;;;;;5033175;28;20469;-70
2023/11/06 06:47:44;;;;;;;6.50;5.80;;;21.10;90.60;;;;;;5033552;28;20449;-70
2023/11/06 06:50:11;;;;;;;8.70;6.20;;;21.10;90.30;;;;;;5033367;28;20564;-70
2023/11/06 06:52:38;;;;;;;6.57;5.90;;;21.10;90.10;;;;;;5032987;28;20473;-70
2023/11/06 06:55:06;;;;;;;8.83;6.50;;;21.00;89.70;;;;;;5033561;28;20954;-70
2023/11/06 06:57:33;;;;;;;8.03;5.77;;;21.10;89.30;;;;;;5033477;28;20492;-70
2023/11/06 07:00:02;;;;;;;11.37;5.40;;;21.00;88.90;;;;;;5034581;28;20449;-70
2023/11/06 07:02:29;;;;;;;7.77;5.90;;;21.00;88.40;;;;;;5034200;28;20449;-70
2023/11/06 07:04:56;;;;;;;9.00;7.20;;;21.00;88.00;;;;;;5034073;28;20472;-70
2023/11/06 07:07:23;;;;;;;7.37;5.77;;;21.00;87.70;;;;;;5033300;28;20464;-69
2023/11/06 07:09:52;;;;;;;6.37;4.90;;;21.00;87.40;;;;;;5032936;28;20473;-70
2023/11/06 07:12:19;;;;;;;6.20;5.70;;;21.00;87.10;;;;;;5033455;28;20964;-70
2023/11/06 07:14:46;;;;;;;9.63;5.67;;;21.00;86.70;;;;;;5033433;28;20528;-70
2023/11/06 07:17:14;;;;;;;8.87;5.30;;;21.00;86.40;;;;;;5032612;28;20483;-70
2023/11/06 07:19:42;;;;;;;8.40;6.37;;;21.00;86.10;;;;;;5032405;28;20492;-69
2023/11/06 07:22:09;;;;;;;5.03;4.70;;;21.00;85.80;;;;;;5033073;28;20449;-69
2023/11/06 07:24:36;;;;;;;8.63;5.90;;;21.00;85.60;;;;;;5033134;28;20472;-69
2023/11/06 07:27:04;;;;;;;5.70;5.10;;;21.00;85.30;;;;;;5032885;28;20473;-70
2023/11/06 07:29:31;;;;;;;5.00;4.60;;;21.00;84.90;;;;;;5032607;28;20469;-70
2023/11/06 07:31:58;;;;;;;6.40;5.00;;;21.00;84.80;;;;;;5032393;28;20515;-70
2023/11/06 07:34:26;;;;;;;6.63;4.90;;;21.00;84.60;;;;;;5036466;28;20473;-70
2023/11/06 07:36:53;;;;;;;6.03;5.53;;;21.00;84.30;;;;;;5036529;28;20476;-70
2023/11/06 07:39:20;;;;;;;5.47;4.97;;;21.00;84.10;;;;;;5036891;28;20485;-70
2023/11/06 07:41:47;;;;;;;5.50;5.10;;;21.00;83.90;;;;;;5036373;28;21003;-69
2023/11/06 07:44:14;;;;;;;6.17;4.80;;;21.00;83.70;;;;;;5036290;28;20887;-69
2023/11/06 07:46:41;;;;;;;5.37;4.97;;;21.00;83.60;;;;;;5035616;28;20440;-69
2023/11/06 07:49:08;;;;;;;6.20;5.40;;;20.90;83.30;;;;;;5036132;28;20576;-70
2023/11/06 07:51:36;;;;;;;10.37;5.53;;;20.90;83.10;;;;;;5035766;28;20513;-70
2023/11/06 07:54:04;;;;;;;7.70;4.80;;;20.90;82.90;;;;;;5035769;28;20468;-69
2023/11/06 07:56:30;;;;;;;6.03;4.20;;;20.90;82.70;;;;;;5035984;28;20504;-70
2023/11/06 07:58:57;;;;;;;5.53;5.13;;;20.90;82.60;;;;;;5036408;28;20492;-70
2023/11/06 08:01:24;;;;;;;6.77;6.17;;;20.90;82.50;;;;;;5037018;28;20995;-70
2023/11/06 08:03:51;;;;;;;5.00;4.73;;;20.90;82.30;;;;;;5037464;28;20864;-70
2023/11/06 08:06:19;;;;;;;5.53;5.13;;;20.90;82.10;;;;;;5036533;28;20839;-70
2023/11/06 08:08:49;;;;;;;5.50;5.20;;;20.90;82.00;;;;;;5036111;28;20471;-69
2023/11/06 08:11:18;;;;;;;5.90;5.43;;;20.90;81.90;;;;;;5035661;28;20504;-69
2023/11/06 08:13:47;;;;;;;6.70;6.10;;;20.90;81.80;;;;;;5035376;28;20460;-69
2023/11/06 08:16:14;;;;;;;5.47;5.17;;;20.90;81.70;;;;;;5035804;28;20445;-69
2023/11/06 08:18:40;;;;;;;5.70;5.33;;;20.90;81.50;;;;;;5035387;28;20493;-70
2023/11/06 08:21:09;;;;;;;4.53;4.40;;;20.90;81.40;;;;;;5035741;28;20473;-70
2023/11/06 08:23:36;;;;;;;5.33;4.93;;;20.90;81.30;;;;;;5035634;28;20491;-70
2023/11/06 08:26:05;;;;;;;5.00;4.60;;;20.90;81.20;;;;;;5035071;28;20480;-69
2023/11/06 08:28:32;;;;;;;5.93;5.50;;;20.90;81.10;;;;;;5035494;28;20501;-69
2023/11/06 08:30:59;;;;;;;6.23;5.93;;;20.90;81.00;;;;;;5034966;28;20511;-69
2023/11/06 08:33:26;;;;;;;6.70;6.30;;;20.90;80.90;;;;;;5035152;28;20458;-70
2023/11/06 08:35:53;;;;;;;4.60;4.50;;;20.90;80.80;;;;;;5035504;28;20546;-70
2023/11/06 08:38:20;;;;;;;5.33;5.00;;;20.80;80.60;;;;;;5035628;28;20482;-70
2023/11/06 08:40:50;;;;;;;6.20;5.70;;;20.80;80.50;;;;;;5035223;28;20445;-69
2023/11/06 08:43:18;;;;;;;5.50;5.20;;;20.80;80.40;;;;;;5034764;28;20964;-69
2023/11/06 08:45:45;;;;;;;5.33;5.00;;;20.80;80.30;;;;;;5034079;28;20472;-69
2023/11/06 08:48:12;;;;;;;6.20;5.60;;;20.80;80.20;;;;;;5034752;28;20838;-70
2023/11/06 08:50:39;;;;;;;5.43;5.03;;;20.80;80.10;;;;;;5035077;28;20511;-69
2023/11/06 08:53:06;;;;;;;5.50;5.10;;;20.80;80.00;;;;;;5034858;28;20484;-69
2023/11/06 08:55:33;;;;;;;5.27;4.87;;;20.80;79.90;;;;;;5034918;28;20473;-69
2023/11/06 08:57:59;;;;;;;5.83;5.33;;;20.90;79.90;;;;;;5060893;22;20578;-66
2023/11/06 09:00:29;;;;;;;6.60;6.17;;;20.80;79.70;;;;;;5053283;28;20464;-65
2023/11/06 09:02:56;;;;;;;5.77;5.30;;;20.80;79.70;;;;;;5053304;28;20447;-65
2023/11/06 09:05:23;;;;;;;5.00;4.70;;;20.80;79.50;;;;;;5053152;28;20834;-65
2023/11/06 09:07:51;;;;;;;6.07;5.67;;;20.80;79.50;;;;;;5053144;28;20440;-65
2023/11/06 09:10:18;;;;;;;5.70;5.43;;;20.80;79.40;;;;;;5042056;28;20462;-65
2023/11/06 09:12:45;;;;;;;4.90;4.70;;;20.80;79.30;;;;;;5041542;28;20547;-65
2023/11/06 09:15:13;;;;;;;4.40;4.30;;;20.80;79.20;;;;;;5043000;28;20445;-65
2023/11/06 09:17:41;;;;;;;6.40;4.63;;;20.80;79.10;;;;;;5044612;28;20951;-66
2023/11/06 09:20:09;;;;;;;4.77;4.43;;;20.80;79.00;;;;;;5043433;28;20472;-66
2023/11/06 09:22:36;;;;;;;4.10;4.00;;;20.80;79.00;;;;;;5041116;28;20952;-65
2023/11/06 09:25:05;;;;;;;4.67;4.23;;;20.80;78.90;;;;;;5041453;28;20480;-65
2023/11/06 09:27:33;;;;;;;4.70;4.33;;;20.80;78.90;;;;;;5044495;28;20773;-65
2023/11/06 09:30:00;;;;;;;4.20;4.10;;;20.80;78.70;;;;;;5044231;28;20838;-66
2023/11/06 09:32:27;;;;;;;5.10;4.80;;;20.80;78.70;;;;;;5040865;28;20508;-65
2023/11/06 09:34:56;;;;;;;5.20;4.70;;;20.80;78.60;;;;;;5041030;28;20449;-65
2023/11/06 09:37:24;;;;;;;5.33;4.83;;;20.80;78.60;;;;;;5043886;28;20436;-66
2023/11/06 09:39:51;;;;;;;4.70;4.60;;;20.70;78.40;;;;;;5044178;28;20495;-65
2023/11/06 09:42:18;;;;;;;4.93;4.50;;;20.70;78.30;;;;;;5041621;28;20436;-65
2023/11/06 09:44:46;;;;;;;4.87;4.50;;;20.70;78.20;;;;;;5040555;28;20449;-66
2023/11/06 09:47:15;;;;;;;4.87;4.67;;;20.70;78.10;;;;;;5042214;28;20453;-65
2023/11/06 09:49:44;;;;;;;4.40;4.30;;;20.70;78.10;;;;;;5044059;28;20555;-65
2023/11/06 09:52:15;;;;;;;4.63;4.53;;;20.70;78.10;;;;;;5042207;28;20551;-65
2023/11/06 09:54:43;;;;;;;4.70;4.60;;;20.70;78.00;;;;;;5040448;28;20477;-65
2023/11/06 09:57:12;;;;;;;4.90;4.60;;;20.70;78.00;;;;;;5041386;28;20472;-65
2023/11/06 09:59:39;;;;;;;4.30;4.23;;;20.70;77.90;;;;;;5043812;28;20501;-65
2023/11/06 10:02:06;;;;;;;4.13;4.00;;;20.70;77.80;;;;;;5043015;28;20432;-65
2023/11/06 10:04:35;;;;;;;5.13;4.93;;;20.70;78.40;;;;;;5040327;28;20473;-66
2023/11/06 10:07:03;;;;;;;4.50;4.40;;;20.70;77.70;;;;;;5040697;28;20453;-66
2023/11/06 10:09:32;;;;;;;4.50;4.40;;;20.70;77.60;;;;;;5043667;28;20464;-65
2023/11/06 10:12:15;;;;;;;5.37;4.93;;;20.70;77.50;;;;;;5043529;28;20881;-66
2023/11/06 10:14:42;;;;;;;4.87;4.57;;;20.70;77.30;;;;;;5034163;28;20456;-65
2023/11/06 10:17:09;;;;;;;5.20;4.90;;;20.70;77.30;;;;;;5041080;28;20477;-65
2023/11/06 10:19:36;;;;;;;5.00;4.70;;;20.70;77.20;;;;;;5043605;28;20921;-65
2023/11/06 10:22:13;;;;;;;4.60;4.50;;;20.70;77.10;;;;;;5043197;28;20944;-67
2023/11/06 10:24:50;;;;;;;4.77;4.60;;;20.70;77.10;;;;;;5039971;28;20944;-65
2023/11/06 10:27:26;;;;;;;4.87;4.63;;;20.70;77.00;;;;;;5042026;28;20449;-66
2023/11/06 10:30:03;;;;;;;4.83;4.57;;;20.70;76.90;;;;;;5043274;28;20918;-66
2023/11/06 10:32:30;;;;;;;4.93;4.60;;;20.70;76.90;;;;;;5032170;28;20476;-66
2023/11/06 10:35:00;;;;;;;4.80;4.57;;;20.70;76.90;;;;;;5040115;28;20473;-67
2023/11/06 10:37:28;;;;;;;5.10;4.80;;;20.70;76.80;;;;;;5031790;28;20945;-66
2023/11/06 10:39:57;;;;;;;4.80;4.60;;;20.70;77.00;;;;;;5039678;28;20468;-65
2023/11/06 10:42:25;;;;;;;4.87;4.67;;;20.70;76.60;;;;;;5042619;28;20439;-66
2023/11/06 10:44:57;;;;;;;4.30;3.97;;;20.70;76.60;;;;;;5043029;28;20483;-65
2023/11/06 10:47:33;;;;;;;3.97;3.87;;;20.70;76.60;;;;;;5040197;28;20441;-65
2023/11/06 10:50:04;;;;;;;5.23;5.03;;;20.70;76.50;;;;;;5039781;28;20488;-66
2023/11/06 10:52:34;;;;;;;5.63;5.53;;;20.70;76.50;;;;;;5031952;28;20511;-65
2023/11/06 10:55:03;;;;;;;5.17;4.93;;;20.70;76.40;;;;;;5039642;28;20447;-65
2023/11/06 10:57:34;;;;;;;4.67;4.57;;;20.70;76.30;;;;;;5032010;28;20448;-66
2023/11/06 11:00:04;;;;;;;4.37;4.27;;;20.70;76.30;;;;;;5039806;28;20508;-66
2023/11/06 11:02:44;;;;;;;5.00;4.80;;;20.70;76.20;;;;;;5039509;28;20445;-66
2023/11/06 11:05:13;;;;;;;4.80;4.60;;;20.70;76.20;;;;;;5040510;28;20445;-65
2023/11/06 11:07:41;;;;;;;4.97;4.77;;;20.70;76.00;;;;;;5044201;28;20501;-65
2023/11/06 11:10:13;;;;;;;4.60;4.40;;;20.80;76.10;;;;;;5046192;28;20440;-65
2023/11/06 11:12:41;;;;;;;4.20;4.10;;;20.80;76.00;;;;;;5043475;28;20926;-65
2023/11/06 11:15:09;;;;;;;3.90;3.80;;;20.70;75.80;;;;;;5044163;28;20449;-66
2023/11/06 11:17:37;;;;;;;4.37;4.27;;;20.70;75.90;;;;;;5047056;28;20531;-66
2023/11/06 11:20:05;;;;;;;4.40;4.20;;;20.70;75.80;;;;;;5046823;28;20448;-67
2023/11/06 11:22:33;;;;;;;3.90;3.80;;;20.70;75.70;;;;;;5043538;28;20445;-66
2023/11/06 11:25:01;;;;;;;4.40;4.30;;;20.70;75.80;;;;;;5043336;28;20441;-65
2023/11/06 11:27:30;;;;;;;5.00;4.80;;;20.70;75.80;;;;;;5046696;28;20766;-64
2023/11/06 11:30:04;;;;;;;4.90;4.73;;;20.70;75.70;;;;;;5046694;28;20475;-65
2023/11/06 11:32:47;;;;;;;4.43;4.33;;;20.70;75.70;;;;;;5035118;28;20551;-65
2023/11/06 11:36:01;;;;;;;4.10;4.00;;;20.70;75.60;;;;;;5044368;28;20463;-65
2023/11/06 11:38:33;;;;;;;3.90;3.80;;;20.70;75.60;;;;;;5043175;28;20511;-65
2023/11/06 11:41:14;;;;;;;3.80;3.70;;;20.70;75.60;;;;;;5043208;28;20445;-66
2023/11/06 11:43:50;;;;;;;3.80;3.60;;;20.70;75.50;;;;;;5036662;28;20445;-65
2023/11/06 11:46:52;;;;;;;4.13;4.03;;;20.70;75.50;;;;;;5044697;28;20468;-65
2023/11/06 11:49:40;;;;;;;5.07;4.97;;;20.70;75.50;;;;;;5044300;28;20487;-64
2023/11/06 11:52:08;;;;;;;4.57;4.37;;;20.70;75.40;;;;;;5042970;28;20530;-65
2023/11/06 11:54:37;;;;;;;3.70;3.60;;;20.70;75.40;;;;;;5046200;28;20472;-65
2023/11/06 11:57:05;;;;;;;3.83;3.73;;;20.60;75.30;;;;;;5046308;28;20444;-65
2023/11/06 11:59:45;;;;;;;3.20;3.20;;;20.70;75.50;;;;;;5042693;28;20465;-65
2023/11/06 12:02:27;;;;;;;3.90;3.80;;;20.70;75.30;;;;;;5043541;28;20445;-65
2023/11/06 12:04:57;;;;;;;4.47;4.37;;;20.70;75.30;;;;;;5045978;28;20476;-65
2023/11/06 12:07:28;;;;;;;4.33;4.13;;;20.70;75.10;;;;;;5043481;28;20448;-65
2023/11/06 12:09:55;;;;;;;3.97;3.97;;;20.70;75.00;;;;;;5042478;28;20977;-65
2023/11/06 12:12:24;;;;;;;4.23;4.03;;;20.70;75.00;;;;;;5044616;28;20915;-64
2023/11/06 12:14:54;;;;;;;4.03;3.90;;;20.70;75.00;;;;;;5045912;28;20483;-66
2023/11/06 12:17:32;;;;;;;3.80;3.80;;;20.70;74.90;;;;;;5043839;28;20444;-65
2023/11/06 12:20:00;;;;;;;4.00;3.90;;;20.70;74.80;;;;;;5042023;28;20468;-66
2023/11/06 12:22:30;;;;;;;3.80;3.80;;;20.80;74.90;;;;;;5045020;28;20437;-65
2023/11/06 12:24:58;;;;;;;4.03;4.03;;;20.70;74.70;;;;;;5045837;28;20448;-66
2023/11/06 12:27:34;;;;;;;3.90;3.80;;;20.70;74.70;;;;;;5043162;28;20956;-65
2023/11/06 12:30:06;;;;;;;4.20;4.10;;;20.70;74.60;;;;;;5042091;28;20472;-66
2023/11/06 12:32:35;;;;;;;3.50;3.50;;;20.70;74.60;;;;;;5034047;28;20821;-65
2023/11/06 12:35:06;;;;;;;4.13;3.93;;;20.70;74.60;;;;;;5042042;28;20448;-66
2023/11/06 12:37:51;;;;;;;3.77;3.67;;;20.80;74.60;;;;;;5034034;28;20441;-65
2023/11/06 12:40:18;;;;;;;3.50;3.50;;;20.80;74.60;;;;;;5043355;28;20487;-66
2023/11/06 12:42:46;;;;;;;3.60;3.50;;;20.80;74.50;;;;;;5045506;28;20464;-65
2023/11/06 12:45:36;;;;;;;3.90;3.80;;;20.80;74.50;;;;;;5044654;28;20471;-65
2023/11/06 12:48:21;;;;;;;3.50;3.40;;;20.70;74.30;;;;;;5041946;28;20461;-65
2023/11/06 12:51:03;;;;;;;3.80;3.70;;;20.70;74.30;;;;;;5035870;28;20528;-65
2023/11/06 12:53:31;;;;;;;4.07;3.87;;;20.80;74.30;;;;;;5044616;28;20480;-65